Time;durP1;ratioP1;P1;durP2;ratioP2;P2;SDS_P1;SDS_P2;PMS_P1;PMS_P2;Temp;Humidity;BMP_temperature;BMP_pressure;BME280_temperature;BME280_humidity;BME280_pressure;Samples;Min_cycle;Max_cycle;Signal;HPM_P1;HPM_P2
2022/04/04 00:00:46;;;;;;;3.10;1.92;;;5.30;59.70;;;;;;4977050;28;20091;-85
2022/04/04 00:03:12;;;;;;;3.53;1.87;;;5.30;59.70;;;;;;4999852;28;20321;-85
2022/04/04 00:05:39;;;;;;;3.25;1.83;;;5.30;60.00;;;;;;4998378;28;20088;-85
2022/04/04 00:08:06;;;;;;;3.47;1.73;;;5.30;60.00;;;;;;5002709;28;20057;-85
2022/04/04 00:10:32;;;;;;;3.50;1.60;;;5.20;59.90;;;;;;4999117;28;20405;-85
2022/04/04 00:12:58;;;;;;;2.90;1.67;;;5.20;59.80;;;;;;5016164;28;20033;-85
2022/04/04 00:15:23;;;;;;;2.95;1.73;;;5.20;59.70;;;;;;4965862;28;21100;-85
2022/04/04 00:17:50;;;;;;;2.95;1.60;;;5.20;59.80;;;;;;4991746;28;20062;-85
2022/04/04 00:20:16;;;;;;;3.03;1.73;;;5.20;60.00;;;;;;5003545;28;20247;-85
2022/04/04 00:22:42;;;;;;;2.90;1.60;;;5.20;60.00;;;;;;4985863;28;20018;-85
2022/04/04 00:25:08;;;;;;;3.10;1.63;;;5.10;59.90;;;;;;5014341;28;20030;-85
2022/04/04 00:27:34;;;;;;;2.88;1.65;;;5.10;60.00;;;;;;5000942;28;20046;-85
2022/04/04 00:30:01;;;;;;;3.13;1.50;;;5.10;60.00;;;;;;5005448;28;20418;-85
2022/04/04 00:32:26;;;;;;;3.60;1.50;;;5.10;60.10;;;;;;4981745;28;20410;-85
2022/04/04 00:34:52;;;;;;;3.30;1.80;;;5.10;60.40;;;;;;4972148;28;20346;-85
2022/04/04 00:37:18;;;;;;;2.97;1.50;;;5.10;60.40;;;;;;5004278;28;20301;-85
2022/04/04 00:39:44;;;;;;;3.17;1.53;;;5.10;61.10;;;;;;4978035;28;20021;-85
2022/04/04 00:42:10;;;;;;;3.25;1.60;;;5.10;60.90;;;;;;4995795;28;20614;-85
2022/04/04 00:44:35;;;;;;;3.30;1.70;;;5.10;61.10;;;;;;5012542;28;20032;-85
2022/04/04 00:47:01;;;;;;;2.78;1.50;;;5.10;61.10;;;;;;4966732;28;20406;-85
2022/04/04 00:49:27;;;;;;;2.80;1.70;;;5.10;60.90;;;;;;4988857;28;20132;-85
2022/04/04 00:51:53;;;;;;;2.67;1.47;;;5.10;61.50;;;;;;4971991;28;20030;-85
2022/04/04 00:54:19;;;;;;;3.10;1.50;;;5.10;61.30;;;;;;4969155;28;20185;-85
2022/04/04 00:56:46;;;;;;;3.03;1.80;;;5.10;61.10;;;;;;4998429;28;20030;-85
2022/04/04 00:59:15;;;;;;;3.13;1.77;;;5.10;61.20;;;;;;4980796;28;20095;-85
2022/04/04 01:01:41;;;;;;;3.35;1.75;;;5.10;61.50;;;;;;4991079;28;20026;-85
2022/04/04 01:04:08;;;;;;;4.27;1.87;;;5.10;62.20;;;;;;4985527;28;20056;-85
2022/04/04 01:06:35;;;;;;;2.60;1.50;;;5.10;61.60;;;;;;4996023;28;20186;-85
2022/04/04 01:09:03;;;;;;;3.42;1.88;;;5.10;61.60;;;;;;4985432;28;20034;-85
2022/04/04 01:11:31;;;;;;;3.42;1.70;;;5.10;61.50;;;;;;4979543;28;20513;-85
2022/04/04 01:13:57;;;;;;;3.92;1.63;;;5.10;62.20;;;;;;5004769;28;20037;-85
2022/04/04 01:16:23;;;;;;;4.20;1.90;;;5.10;61.80;;;;;;4998201;28;20255;-85
2022/04/04 01:18:49;;;;;;;3.55;1.95;;;5.10;62.00;;;;;;4982515;28;20142;-84
2022/04/04 01:21:19;;;;;;;4.27;1.90;;;5.10;62.10;;;;;;4988443;28;20311;-85
2022/04/04 01:23:49;;;;;;;2.78;1.73;;;5.10;62.10;;;;;;4991670;28;20026;-85
2022/04/04 01:26:17;;;;;;;3.30;1.77;;;5.10;62.40;;;;;;4986284;28;20029;-85
2022/04/04 01:28:43;;;;;;;4.45;1.77;;;5.10;63.20;;;;;;5007692;28;20108;-85
2022/04/04 01:31:09;;;;;;;3.73;1.70;;;5.10;62.30;;;;;;4978485;28;20037;-84
2022/04/04 01:33:35;;;;;;;3.20;1.90;;;5.10;62.10;;;;;;4980774;28;20681;-85
2022/04/04 01:36:00;;;;;;;4.03;1.90;;;5.10;62.10;;;;;;4970410;28;20034;-85
2022/04/04 01:38:26;;;;;;;3.53;1.80;;;5.10;62.60;;;;;;5005768;28;20115;-85
2022/04/04 01:40:52;;;;;;;2.90;1.70;;;5.10;62.60;;;;;;4992008;28;20057;-85
2022/04/04 01:43:18;;;;;;;3.28;2.05;;;5.10;62.60;;;;;;4998616;28;20109;-85
2022/04/04 01:48:34;;;;;;;3.60;1.60;;;5.00;62.60;;;;;;4999226;28;20061;-85
2022/04/04 01:51:00;;;;;;;2.95;1.98;;;5.10;62.50;;;;;;4982948;28;20157;-86
2022/04/04 01:53:25;;;;;;;4.83;2.27;;;5.10;62.50;;;;;;4992512;28;20018;-85
2022/04/04 01:55:56;;;;;;;3.75;1.67;;;5.10;62.60;;;;;;4965149;28;20410;-85
2022/04/04 01:58:23;;;;;;;5.97;2.25;;;5.10;62.90;;;;;;4995672;28;20186;-85
2022/04/04 02:00:49;;;;;;;3.83;2.03;;;5.10;63.10;;;;;;4975937;28;20430;-85
2022/04/04 02:03:14;;;;;;;3.55;1.85;;;5.00;63.00;;;;;;4993881;28;20217;-85
2022/04/04 02:05:40;;;;;;;3.53;1.88;;;5.00;62.70;;;;;;4977311;28;20490;-85
2022/04/04 02:08:06;;;;;;;2.30;1.60;;;5.00;62.40;;;;;;4977227;28;20127;-85
2022/04/04 02:10:32;;;;;;;3.15;1.77;;;5.00;62.60;;;;;;4997252;28;20038;-85
2022/04/04 02:12:58;;;;;;;3.50;1.90;;;5.00;62.60;;;;;;4970648;28;20026;-85
2022/04/04 02:15:24;;;;;;;3.95;2.10;;;5.00;63.20;;;;;;4993257;28;20306;-85
2022/04/04 02:17:50;;;;;;;3.17;1.92;;;5.00;62.80;;;;;;4997773;28;20513;-85
2022/04/04 02:20:16;;;;;;;2.92;1.80;;;4.90;62.70;;;;;;4977030;28;20139;-85
2022/04/04 02:22:42;;;;;;;2.87;1.60;;;4.90;62.90;;;;;;4987335;28;20022;-85
2022/04/04 02:25:08;;;;;;;3.10;1.80;;;5.00;62.60;;;;;;4968106;28;20366;-85
2022/04/04 02:27:34;;;;;;;3.28;1.70;;;4.90;62.40;;;;;;4974087;28;20100;-84
2022/04/04 02:30:00;;;;;;;2.73;1.80;;;4.90;62.60;;;;;;4992621;28;20585;-85
2022/04/04 02:32:26;;;;;;;2.50;1.50;;;4.90;62.80;;;;;;4995162;28;20692;-85
2022/04/04 02:34:52;;;;;;;3.78;1.90;;;4.90;62.60;;;;;;4980285;28;20080;-85
2022/04/04 02:37:18;;;;;;;2.95;1.55;;;5.00;63.30;;;;;;4996338;28;20030;-85
2022/04/04 02:39:44;;;;;;;3.97;2.20;;;4.90;62.70;;;;;;4972364;28;20029;-86
2022/04/04 02:42:09;;;;;;;3.77;1.57;;;4.90;63.10;;;;;;4985355;28;20230;-85
2022/04/04 02:44:35;;;;;;;3.72;1.85;;;4.90;62.80;;;;;;4979443;28;20025;-85
2022/04/04 02:47:01;;;;;;;3.93;2.10;;;5.00;63.70;;;;;;4998568;28;20076;-85
2022/04/04 02:49:29;;;;;;;3.78;2.20;;;5.00;63.60;;;;;;4997844;28;20026;-85
2022/04/04 02:51:55;;;;;;;4.03;2.03;;;5.00;64.00;;;;;;4975477;28;20297;-85
2022/04/04 02:54:21;;;;;;;4.50;2.50;;;5.00;63.70;;;;;;4970813;28;20567;-85
2022/04/04 02:56:47;;;;;;;3.78;2.13;;;5.00;64.50;;;;;;4981238;28;20044;-85
2022/04/04 02:59:13;;;;;;;3.67;2.30;;;5.00;63.90;;;;;;4998429;28;20210;-85
2022/04/04 03:01:41;;;;;;;5.83;2.53;;;5.00;64.20;;;;;;4999019;28;20022;-85
2022/04/04 03:04:07;;;;;;;4.90;2.40;;;5.10;64.70;;;;;;5008481;28;20029;-85
2022/04/04 03:06:35;;;;;;;4.43;2.47;;;5.10;64.10;;;;;;4980516;28;20499;-85
2022/04/04 03:09:01;;;;;;;5.20;2.75;;;5.10;64.40;;;;;;5004564;28;20450;-85
2022/04/04 03:11:26;;;;;;;4.57;2.23;;;5.10;64.40;;;;;;4991766;28;20117;-85
2022/04/04 03:13:52;;;;;;;4.65;2.50;;;5.10;64.50;;;;;;4984059;28;20033;-85
2022/04/04 03:16:18;;;;;;;4.90;2.90;;;5.10;65.40;;;;;;4996113;28;20278;-85
2022/04/04 03:18:44;;;;;;;3.38;2.20;;;5.20;65.00;;;;;;5002490;28;20309;-85
2022/04/04 03:21:10;;;;;;;3.50;2.27;;;5.20;64.80;;;;;;4984040;28;20018;-85
2022/04/04 03:23:39;;;;;;;4.85;2.83;;;5.20;64.70;;;;;;4983637;28;20085;-85
2022/04/04 03:26:06;;;;;;;6.22;2.92;;;5.20;65.30;;;;;;4967663;28;20243;-85
2022/04/04 03:28:32;;;;;;;3.67;2.60;;;5.20;65.20;;;;;;4992485;28;20073;-85
2022/04/04 03:30:58;;;;;;;4.40;2.80;;;5.30;65.30;;;;;;4998638;28;20109;-83
2022/04/04 03:33:23;;;;;;;4.32;2.38;;;5.30;65.10;;;;;;4984458;28;20026;-86
2022/04/04 03:35:49;;;;;;;5.03;2.40;;;5.30;64.80;;;;;;4998468;28;20029;-84
2022/04/04 03:38:16;;;;;;;5.10;2.72;;;5.30;65.10;;;;;;4979406;28;20216;-85
2022/04/04 03:40:42;;;;;;;4.45;2.63;;;5.30;65.10;;;;;;4987572;28;20393;-85
2022/04/04 03:43:08;;;;;;;4.07;2.20;;;5.30;65.20;;;;;;4989270;28;20444;-85
2022/04/04 03:45:34;;;;;;;5.90;2.92;;;5.30;65.00;;;;;;4992274;28;20350;-85
2022/04/04 03:48:00;;;;;;;4.80;2.75;;;5.30;65.90;;;;;;4995608;28;20041;-85
2022/04/04 03:50:28;;;;;;;3.77;2.53;;;5.30;65.80;;;;;;5000092;28;20422;-84
2022/04/04 03:52:55;;;;;;;4.55;2.58;;;5.30;65.40;;;;;;4989951;28;20034;-84
2022/04/04 03:55:24;;;;;;;5.38;3.13;;;5.30;65.40;;;;;;5017998;28;20060;-84
2022/04/04 03:57:51;;;;;;;4.60;2.75;;;5.30;65.60;;;;;;5008599;28;20103;-85
2022/04/04 04:00:17;;;;;;;6.07;2.97;;;5.30;66.00;;;;;;5001308;28;20244;-86
2022/04/04 04:02:43;;;;;;;5.40;2.70;;;5.30;66.30;;;;;;5005397;28;20600;-85
2022/04/04 04:05:09;;;;;;;5.85;3.20;;;5.30;65.80;;;;;;4987602;28;20113;-86
2022/04/04 04:07:35;;;;;;;9.65;4.22;;;5.30;66.30;;;;;;5017535;28;20501;-85
2022/04/04 04:10:00;;;;;;;7.00;4.07;;;5.40;66.00;;;;;;4977309;28;20034;-85
2022/04/04 04:12:27;;;;;;;6.18;3.47;;;5.40;66.60;;;;;;4990659;28;20545;-84
2022/04/04 04:14:54;;;;;;;5.40;3.15;;;5.40;66.10;;;;;;5004116;28;20038;-86
2022/04/04 04:17:24;;;;;;;6.57;3.50;;;5.40;66.50;;;;;;4993913;28;20041;-86
2022/04/04 04:22:35;;;;;;;7.95;4.13;;;5.40;66.40;;;;;;4999279;28;20037;-83
2022/04/04 04:25:03;;;;;;;5.00;2.90;;;5.40;66.80;;;;;;4979631;28;20026;-85
2022/04/04 04:27:29;;;;;;;6.32;3.13;;;5.40;66.70;;;;;;4991816;28;20136;-85
2022/04/04 04:29:54;;;;;;;5.10;3.03;;;5.40;66.50;;;;;;4982337;28;20037;-85
2022/04/04 04:32:21;;;;;;;6.15;2.80;;;5.40;66.50;;;;;;5002606;28;20073;-85
2022/04/04 04:34:50;;;;;;;6.00;3.22;;;5.40;66.40;;;;;;4982435;28;20040;-85
2022/04/04 04:37:21;;;;;;;4.40;2.40;;;5.50;67.10;;;;;;4996267;28;20216;-84
2022/04/04 04:39:47;;;;;;;7.00;3.50;;;5.50;66.40;;;;;;4988350;28;20032;-84
2022/04/04 04:42:13;;;;;;;6.25;3.40;;;5.50;66.40;;;;;;5003818;28;20244;-84
2022/04/04 04:44:39;;;;;;;5.38;3.70;;;5.50;67.20;;;;;;5023505;28;20030;-85
2022/04/04 04:47:05;;;;;;;5.40;3.23;;;5.50;67.80;;;;;;4985721;28;20084;-85
2022/04/04 04:49:32;;;;;;;4.90;2.88;;;5.50;67.20;;;;;;4998844;28;20025;-85
2022/04/04 04:51:57;;;;;;;5.45;2.83;;;5.50;67.10;;;;;;4982812;28;20037;-86
2022/04/04 04:54:23;;;;;;;4.67;2.70;;;5.60;66.90;;;;;;4983033;28;21087;-85
2022/04/04 04:56:49;;;;;;;5.07;3.30;;;5.60;67.30;;;;;;5018856;28;20021;-85
2022/04/04 04:59:14;;;;;;;5.97;3.63;;;5.60;67.10;;;;;;4989675;28;20483;-85
2022/04/04 05:01:40;;;;;;;7.30;3.30;;;5.60;67.60;;;;;;4974916;28;20727;-85
2022/04/04 05:04:06;;;;;;;5.33;3.07;;;5.60;67.80;;;;;;4972126;28;20284;-85
2022/04/04 05:06:32;;;;;;;5.43;3.10;;;5.60;67.20;;;;;;4959458;28;20270;-85
2022/04/04 05:09:00;;;;;;;5.57;2.90;;;5.60;67.10;;;;;;4982804;28;20025;-86
2022/04/04 05:11:26;;;;;;;6.72;3.33;;;5.70;67.10;;;;;;4966901;28;20355;-85
2022/04/04 05:13:52;;;;;;;4.03;2.60;;;5.60;67.10;;;;;;4990230;28;20048;-85
2022/04/04 05:16:18;;;;;;;6.40;3.67;;;5.70;66.90;;;;;;4996653;28;20030;-85
2022/04/04 05:18:44;;;;;;;5.53;3.30;;;5.70;67.90;;;;;;4985438;28;20481;-85
2022/04/04 05:21:11;;;;;;;4.20;2.72;;;5.70;67.90;;;;;;4984952;28;20049;-86
2022/04/04 05:23:38;;;;;;;5.32;3.28;;;5.70;67.20;;;;;;4981301;28;20518;-86
2022/04/04 05:26:04;;;;;;;7.00;3.60;;;5.80;67.30;;;;;;4999816;28;20057;-84
2022/04/04 05:28:30;;;;;;;5.13;3.03;;;5.80;67.50;;;;;;4972579;28;20044;-86
2022/04/04 05:30:57;;;;;;;6.80;3.22;;;5.70;67.40;;;;;;4985035;28;20400;-85
2022/04/04 05:33:23;;;;;;;6.00;3.00;;;5.80;67.10;;;;;;4986380;28;20119;-84
2022/04/04 05:35:48;;;;;;;5.80;2.85;;;5.80;67.50;;;;;;4999849;28;20030;-85
2022/04/04 05:38:14;;;;;;;6.87;3.97;;;5.90;67.70;;;;;;4971402;28;20026;-84
2022/04/04 05:40:41;;;;;;;7.50;4.10;;;5.90;68.60;;;;;;4971513;28;20494;-85
2022/04/04 05:43:07;;;;;;;6.40;3.63;;;6.00;68.40;;;;;;5004497;28;20034;-84
2022/04/04 05:45:37;;;;;;;5.57;3.08;;;5.90;68.40;;;;;;4986522;28;20352;-84
2022/04/04 05:48:03;;;;;;;6.30;3.50;;;6.00;68.10;;;;;;4987600;28;20026;-85
2022/04/04 05:50:29;;;;;;;12.63;4.10;;;6.00;68.40;;;;;;4966277;28;20262;-85
2022/04/04 05:52:55;;;;;;;5.50;3.60;;;6.10;68.10;;;;;;4972723;28;20040;-85
2022/04/04 05:55:21;;;;;;;6.25;3.47;;;6.20;68.60;;;;;;4976724;28;20044;-85
2022/04/04 05:57:47;;;;;;;6.13;3.17;;;6.20;68.70;;;;;;4990075;28;20029;-85
2022/04/04 06:00:14;;;;;;;5.18;3.03;;;6.30;68.00;;;;;;4982871;28;20065;-85
2022/04/04 06:02:42;;;;;;;8.57;4.22;;;6.30;67.70;;;;;;4971400;28;20031;-85
2022/04/04 06:05:08;;;;;;;6.55;4.43;;;6.40;68.60;;;;;;4978632;28;20045;-84
2022/04/04 06:07:38;;;;;;;6.60;3.70;;;6.50;68.80;;;;;;4999740;28;20539;-85
2022/04/04 06:10:06;;;;;;;5.60;3.40;;;6.50;68.70;;;;;;4957226;28;20064;-85
2022/04/04 06:12:34;;;;;;;6.43;3.20;;;6.60;68.50;;;;;;4953358;28;20531;-85
2022/04/04 06:15:00;;;;;;;7.63;4.03;;;6.60;68.30;;;;;;5009602;28;20030;-84
2022/04/04 06:17:27;;;;;;;5.57;3.35;;;6.70;68.40;;;;;;4995782;28;20025;-84
2022/04/04 06:19:52;;;;;;;4.47;2.60;;;6.80;68.10;;;;;;4991264;28;20240;-85
2022/04/04 06:22:25;;;;;;;4.35;2.90;;;6.90;68.00;;;;;;4995390;28;20521;-84
2022/04/04 06:24:51;;;;;;;5.78;3.10;;;6.90;67.90;;;;;;4983694;28;20117;-84
2022/04/04 06:27:17;;;;;;;7.22;4.05;;;7.00;67.90;;;;;;4996749;28;20041;-83
2022/04/04 06:29:43;;;;;;;4.50;3.00;;;7.10;68.10;;;;;;5002105;28;20438;-85
2022/04/04 06:32:10;;;;;;;6.78;3.55;;;7.10;67.80;;;;;;4987764;28;20089;-86
2022/04/04 06:34:36;;;;;;;4.80;3.00;;;7.20;67.90;;;;;;4997536;28;20414;-85
2022/04/04 06:37:04;;;;;;;6.57;3.55;;;7.20;67.60;;;;;;4981276;28;20057;-85
2022/04/04 06:39:30;;;;;;;5.17;3.50;;;7.30;67.70;;;;;;4980497;28;20030;-84
2022/04/04 06:41:56;;;;;;;4.88;3.10;;;7.30;67.60;;;;;;4945963;28;20305;-85
2022/04/04 06:44:22;;;;;;;5.70;3.50;;;7.40;67.60;;;;;;4995839;28;20026;-84
2022/04/04 06:46:47;;;;;;;7.43;3.08;;;7.40;67.50;;;;;;4980366;28;20061;-83
2022/04/04 06:49:13;;;;;;;5.23;3.10;;;7.50;67.50;;;;;;5004631;28;20029;-84
2022/04/04 06:51:39;;;;;;;5.73;2.97;;;7.50;67.40;;;;;;4983333;28;20033;-84
2022/04/04 06:54:05;;;;;;;7.07;3.67;;;7.60;67.50;;;;;;4964571;28;20493;-84
2022/04/04 06:56:32;;;;;;;6.40;3.60;;;7.60;67.50;;;;;;4978190;28;20514;-85
2022/04/04 06:58:58;;;;;;;6.22;3.22;;;7.70;67.50;;;;;;4976007;28;20057;-84
2022/04/04 07:01:24;;;;;;;5.13;3.47;;;7.70;67.20;;;;;;4984325;28;20027;-84
2022/04/04 07:03:49;;;;;;;7.95;4.50;;;7.80;67.30;;;;;;4972592;28;20027;-84
2022/04/04 07:06:16;;;;;;;6.47;3.47;;;7.80;67.50;;;;;;4988299;28;20644;-85
2022/04/04 07:08:42;;;;;;;5.53;3.20;;;7.90;67.50;;;;;;4999168;28;20124;-85
2022/04/04 07:11:10;;;;;;;5.30;3.33;;;8.00;67.70;;;;;;4967509;28;20064;-86
2022/04/04 07:13:37;;;;;;;6.88;3.72;;;8.10;67.70;;;;;;4981181;28;20034;-85
2022/04/04 07:16:04;;;;;;;5.90;3.40;;;8.20;67.60;;;;;;5012692;28;20026;-85
2022/04/04 07:18:29;;;;;;;6.13;3.60;;;8.30;67.40;;;;;;4965834;28;20030;-85
2022/04/04 07:20:55;;;;;;;5.95;3.60;;;8.40;67.20;;;;;;4961204;28;20365;-85
2022/04/04 07:23:21;;;;;;;4.80;3.20;;;8.50;67.20;;;;;;4972614;28;20025;-83
2022/04/04 07:25:50;;;;;;;6.53;3.20;;;8.60;67.40;;;;;;4977441;28;20033;-84
2022/04/04 07:28:16;;;;;;;7.80;4.38;;;8.70;67.30;;;;;;4955649;28;20124;-85
2022/04/04 07:30:43;;;;;;;5.60;3.30;;;8.90;67.00;;;;;;4978489;28;20034;-85
2022/04/04 07:33:15;;;;;;;6.25;3.30;;;9.00;66.90;;;;;;5004007;28;20027;-84
2022/04/04 07:35:42;;;;;;;6.55;4.05;;;9.10;66.60;;;;;;4994425;28;20533;-83
2022/04/04 07:38:10;;;;;;;7.03;3.78;;;9.20;66.20;;;;;;4987859;28;20254;-86
2022/04/04 07:40:35;;;;;;;5.83;3.90;;;9.30;65.90;;;;;;4968705;28;20557;-85
2022/04/04 07:43:01;;;;;;;5.53;3.30;;;9.40;65.80;;;;;;4963468;28;20892;-85
2022/04/04 07:45:31;;;;;;;7.50;3.88;;;9.40;65.70;;;;;;5001053;28;20112;-85
2022/04/04 07:47:58;;;;;;;6.70;3.77;;;9.50;65.40;;;;;;5002266;28;20207;-84
2022/04/04 07:50:23;;;;;;;7.32;4.60;;;9.50;65.30;;;;;;4993158;28;20030;-86
2022/04/04 07:52:49;;;;;;;8.98;4.72;;;9.60;65.10;;;;;;4970243;28;20486;-84
2022/04/04 07:55:15;;;;;;;6.73;3.63;;;9.70;65.00;;;;;;5001889;28;20507;-84
2022/04/04 07:57:41;;;;;;;7.38;3.80;;;9.70;65.20;;;;;;4984180;28;20359;-84
2022/04/04 08:00:09;;;;;;;8.68;4.50;;;9.70;65.10;;;;;;4980269;28;20889;-83
2022/04/04 08:02:35;;;;;;;6.93;3.88;;;9.90;65.10;;;;;;4985562;28;20490;-85
2022/04/04 08:05:04;;;;;;;7.17;3.57;;;9.90;64.60;;;;;;4989032;28;20072;-86
2022/04/04 08:07:30;;;;;;;5.30;3.75;;;9.90;64.80;;;;;;4997445;28;20474;-83
2022/04/04 08:09:55;;;;;;;7.10;4.75;;;10.00;64.60;;;;;;4985553;28;20030;-84
2022/04/04 08:12:25;;;;;;;7.17;4.20;;;10.10;64.10;;;;;;4998621;28;20030;-83
2022/04/04 08:14:51;;;;;;;6.68;3.50;;;10.10;63.70;;;;;;4990115;28;20026;-83
2022/04/04 08:17:17;;;;;;;5.82;3.80;;;10.10;64.50;;;;;;5010609;28;20041;-85
2022/04/04 08:19:42;;;;;;;6.23;4.00;;;10.10;63.70;;;;;;4991960;28;20053;-84
2022/04/04 08:22:08;;;;;;;6.10;3.60;;;10.00;63.60;;;;;;4993721;28;20321;-84
2022/04/04 08:24:34;;;;;;;6.97;4.13;;;10.00;63.60;;;;;;4985262;28;20061;-84
2022/04/04 08:26:59;;;;;;;7.77;4.10;;;9.90;63.30;;;;;;4989139;28;20541;-82
2022/04/04 08:29:25;;;;;;;5.88;4.13;;;9.90;63.60;;;;;;4978886;28;20030;-84
2022/04/04 08:31:51;;;;;;;6.50;4.00;;;9.80;64.00;;;;;;5005819;28;20025;-84
2022/04/04 08:34:16;;;;;;;6.70;3.80;;;9.70;64.00;;;;;;4992691;28;20130;-85
2022/04/04 08:36:42;;;;;;;6.60;4.07;;;9.60;64.30;;;;;;4984420;28;20036;-84
2022/04/04 08:39:08;;;;;;;7.20;4.40;;;9.60;65.30;;;;;;4986618;28;20206;-84
2022/04/04 08:41:36;;;;;;;7.63;4.13;;;9.60;64.70;;;;;;5012487;28;20028;-84
2022/04/04 08:44:02;;;;;;;7.70;3.90;;;9.50;64.70;;;;;;5010558;28;20029;-85
2022/04/04 08:46:29;;;;;;;7.55;3.80;;;9.50;64.90;;;;;;4971076;28;20025;-84
2022/04/04 08:48:58;;;;;;;6.82;3.80;;;9.50;65.20;;;;;;4982698;28;20211;-83
2022/04/04 08:51:28;;;;;;;7.88;3.40;;;9.50;65.40;;;;;;4976027;28;20033;-85
2022/04/04 08:53:54;;;;;;;6.80;3.93;;;9.50;65.60;;;;;;4973576;28;20692;-84
2022/04/04 08:56:23;;;;;;;5.95;3.60;;;9.60;65.70;;;;;;4995583;28;20258;-84
2022/04/04 08:58:50;;;;;;;6.90;4.07;;;9.60;65.80;;;;;;5001105;28;20025;-83
2022/04/04 09:01:17;;;;;;;7.25;4.10;;;9.70;65.80;;;;;;4971705;28;20471;-83
2022/04/04 09:03:42;;;;;;;7.18;4.32;;;9.70;65.80;;;;;;4987818;28;20030;-84
2022/04/04 09:06:08;;;;;;;6.90;4.10;;;9.80;65.60;;;;;;5006772;28;20471;-84
2022/04/04 09:08:51;;;;;;;6.03;3.67;;;9.80;65.70;;;;;;4990705;28;20087;-83
2022/04/04 09:11:17;;;;;;;5.60;3.53;;;9.80;65.90;;;;;;4962201;28;20034;-83
2022/04/04 09:13:43;;;;;;;7.15;4.40;;;9.80;65.90;;;;;;4998597;28;20060;-84
2022/04/04 09:16:10;;;;;;;7.78;4.25;;;9.90;65.90;;;;;;5006032;28;20636;-85
2022/04/04 09:18:35;;;;;;;5.45;3.60;;;9.90;65.90;;;;;;5004899;28;20026;-83
2022/04/04 09:21:03;;;;;;;8.00;4.23;;;9.90;65.90;;;;;;4997237;28;20674;-83
2022/04/04 09:23:48;;;;;;;5.70;3.95;;;9.90;65.90;;;;;;4996045;28;20409;-84
2022/04/04 09:26:28;;;;;;;7.93;4.22;;;9.90;65.90;;;;;;5010283;28;20026;-84
2022/04/04 09:28:53;;;;;;;8.65;3.88;;;9.90;65.90;;;;;;4980433;28;20235;-83
2022/04/04 09:31:19;;;;;;;6.10;3.53;;;9.90;66.00;;;;;;4987207;28;20108;-84
2022/04/04 09:33:45;;;;;;;5.30;3.00;;;9.90;66.00;;;;;;5014231;28;20030;-85
2022/04/04 09:36:11;;;;;;;5.88;3.63;;;9.90;65.90;;;;;;5018182;28;20545;-83
2022/04/04 09:38:36;;;;;;;7.80;3.97;;;9.90;65.90;;;;;;5018210;28;20039;-85
2022/04/04 09:41:14;;;;;;;6.27;3.73;;;9.90;65.80;;;;;;4978806;28;20061;-84
2022/04/04 09:43:58;;;;;;;7.93;4.45;;;9.90;66.10;;;;;;4981484;28;20222;-84
2022/04/04 09:46:29;;;;;;;7.47;4.25;;;9.70;66.40;;;;;;4986809;28;20094;-83
2022/04/04 09:49:13;;;;;;;9.00;4.47;;;9.70;66.30;;;;;;5012975;28;20426;-84
2022/04/04 09:51:38;;;;;;;6.97;3.72;;;9.60;66.30;;;;;;5015764;28;20394;-84
2022/04/04 09:54:06;;;;;;;4.80;3.53;;;9.50;66.40;;;;;;4984809;28;20053;-85
2022/04/04 09:56:32;;;;;;;5.68;3.28;;;9.50;66.50;;;;;;4999643;28;20034;-85
2022/04/04 09:59:00;;;;;;;5.23;3.60;;;9.40;66.40;;;;;;4986732;28;20038;-85
2022/04/04 10:01:28;;;;;;;6.07;3.20;;;9.40;66.70;;;;;;4965891;28;20277;-84
2022/04/04 10:03:55;;;;;;;6.20;3.20;;;9.30;66.80;;;;;;4993651;28;20032;-83
2022/04/04 10:06:26;;;;;;;6.63;3.90;;;9.30;67.20;;;;;;4993057;28;20088;-85
2022/04/04 10:08:54;;;;;;;8.73;5.25;;;9.20;67.20;;;;;;4991774;28;20406;-83
2022/04/04 10:11:22;;;;;;;8.60;4.47;;;9.20;68.00;;;;;;4965245;28;20026;-85
2022/04/04 10:13:49;;;;;;;7.30;4.90;;;9.10;68.00;;;;;;5006214;28;20037;-83
2022/04/04 10:16:16;;;;;;;7.40;4.53;;;9.00;68.00;;;;;;4994470;28;20022;-85
2022/04/04 10:18:46;;;;;;;6.75;4.22;;;9.00;68.00;;;;;;4967280;28;20259;-84
2022/04/04 10:21:12;;;;;;;6.45;3.83;;;9.00;68.50;;;;;;5001385;28;20096;-84
2022/04/04 10:23:40;;;;;;;6.20;3.70;;;8.90;68.00;;;;;;5001195;28;20404;-84
2022/04/04 10:26:07;;;;;;;7.25;4.15;;;8.80;68.60;;;;;;4990166;28;20030;-84
2022/04/04 10:28:39;;;;;;;5.85;3.60;;;8.80;68.80;;;;;;5001217;28;20311;-83
2022/04/04 10:31:12;;;;;;;6.63;4.30;;;8.70;68.90;;;;;;5003588;28;20409;-83
2022/04/04 10:33:38;;;;;;;5.97;3.67;;;8.70;69.40;;;;;;4981878;28;20033;-83
2022/04/04 10:36:15;;;;;;;6.95;3.60;;;8.70;69.00;;;;;;4999648;28;20338;-83
2022/04/04 10:38:49;;;;;;;8.27;4.45;;;8.70;69.50;;;;;;5017886;28;20324;-81
2022/04/04 10:41:18;;;;;;;5.90;3.83;;;8.60;69.70;;;;;;4987268;28;20041;-84
2022/04/04 10:43:49;;;;;;;7.95;4.68;;;8.70;69.40;;;;;;4987464;28;20586;-82
2022/04/04 10:46:17;;;;;;;6.90;3.77;;;8.70;69.90;;;;;;4998230;28;20037;-82
2022/04/04 10:49:00;;;;;;;8.05;5.13;;;8.70;70.20;;;;;;4993739;28;20274;-83
2022/04/04 10:51:28;;;;;;;6.32;3.92;;;8.70;70.00;;;;;;5011293;28;20116;-85
2022/04/04 10:54:03;;;;;;;6.82;3.90;;;8.70;69.80;;;;;;4990403;28;20529;-85
2022/04/04 10:56:37;;;;;;;6.35;3.97;;;8.70;70.00;;;;;;4987867;28;20038;-83
2022/04/04 10:59:15;;;;;;;6.77;4.67;;;8.70;70.00;;;;;;4977835;28;20034;-84
2022/04/04 11:01:42;;;;;;;8.02;4.55;;;8.70;70.00;;;;;;5000092;28;20237;-84
2022/04/04 11:04:22;;;;;;;8.85;5.13;;;8.80;70.60;;;;;;4963658;28;20030;-84
2022/04/04 11:09:46;;;;;;;8.73;4.75;;;8.80;70.90;;;;;;5004039;28;20156;-83
2022/04/04 11:12:14;;;;;;;7.60;4.43;;;8.80;70.60;;;;;;4997201;28;20034;-81
2022/04/04 11:14:42;;;;;;;6.28;4.18;;;8.80;70.20;;;;;;4990920;28;20313;-83
2022/04/04 11:17:17;;;;;;;5.13;3.53;;;8.80;70.40;;;;;;4982505;28;20442;-82
2022/04/04 11:19:53;;;;;;;6.43;3.90;;;8.80;70.50;;;;;;4976061;28;20345;-83
2022/04/04 11:22:26;;;;;;;8.27;4.65;;;8.70;70.40;;;;;;4997669;28;20030;-82
2022/04/04 11:24:54;;;;;;;5.87;3.87;;;8.70;70.60;;;;;;5009904;28;20239;-81
2022/04/04 11:27:27;;;;;;;5.50;3.65;;;8.80;70.60;;;;;;4996740;28;20068;-83
2022/04/04 11:29:53;;;;;;;5.93;3.97;;;8.70;70.80;;;;;;5009057;28;20380;-82
2022/04/04 11:32:34;;;;;;;6.55;4.35;;;8.70;70.90;;;;;;4991609;28;20402;-83
2022/04/04 11:35:09;;;;;;;7.35;4.90;;;8.70;71.80;;;;;;4989407;28;20285;-83
2022/04/04 11:37:45;;;;;;;6.17;4.03;;;8.80;72.30;;;;;;5006287;28;20030;-83
2022/04/04 11:40:14;;;;;;;7.47;4.35;;;8.80;72.30;;;;;;4999333;28;20022;-82
2022/04/04 11:42:44;;;;;;;7.15;4.65;;;8.80;72.30;;;;;;4992867;28;20397;-84
2022/04/04 11:45:13;;;;;;;6.63;3.83;;;8.70;72.30;;;;;;4981846;28;20079;-84
2022/04/04 11:47:40;;;;;;;5.82;4.03;;;8.70;72.20;;;;;;4991647;28;20342;-82
2022/04/04 11:50:08;;;;;;;5.70;3.87;;;8.70;72.70;;;;;;5005619;28;20022;-84
2022/04/04 11:53:15;;;;;;;8.95;5.43;;;8.80;72.40;;;;;;4989353;28;20380;-83
2022/04/04 11:55:44;;;;;;;7.43;4.53;;;8.80;74.00;;;;;;4984527;28;20249;-83
2022/04/04 11:58:15;;;;;;;7.35;4.20;;;8.80;72.70;;;;;;5011730;28;20034;-83
2022/04/04 12:00:55;;;;;;;8.45;4.68;;;8.70;73.10;;;;;;4995614;28;20167;-82
2022/04/04 12:03:23;;;;;;;6.07;3.80;;;8.70;73.70;;;;;;4993369;28;20033;-83
2022/04/04 12:05:50;;;;;;;6.15;3.80;;;8.70;73.50;;;;;;4994520;28;20030;-83
2022/04/04 12:08:18;;;;;;;8.13;4.18;;;8.80;73.50;;;;;;4983693;28;20044;-85
2022/04/04 12:10:47;;;;;;;6.28;3.50;;;8.70;73.60;;;;;;5000743;28;20306;-84
2022/04/04 12:13:14;;;;;;;9.93;4.65;;;8.70;73.60;;;;;;4984444;28;20038;-82
2022/04/04 12:15:44;;;;;;;7.13;4.00;;;8.70;74.00;;;;;;4986046;28;20030;-82
2022/04/04 12:18:30;;;;;;;8.05;4.90;;;8.70;73.80;;;;;;4972074;28;20087;-84
2022/04/04 12:20:58;;;;;;;8.68;4.82;;;8.70;75.00;;;;;;4996309;28;20125;-84
2022/04/04 12:26:11;;;;;;;6.80;4.25;;;8.70;74.60;;;;;;4999354;28;20624;-83
2022/04/04 12:28:48;;;;;;;6.13;3.97;;;8.70;74.80;;;;;;5002643;28;20345;-82
2022/04/04 12:31:20;;;;;;;5.97;3.67;;;8.70;75.30;;;;;;4998951;28;20037;-82
2022/04/04 12:33:53;;;;;;;5.55;3.85;;;8.70;75.80;;;;;;4980856;28;20426;-85
2022/04/04 12:36:29;;;;;;;7.75;4.72;;;8.70;75.90;;;;;;4994407;28;20033;-84
2022/04/04 12:38:58;;;;;;;8.88;5.47;;;8.80;76.20;;;;;;4992491;28;20030;-82
2022/04/04 12:41:25;;;;;;;9.33;5.30;;;8.80;76.30;;;;;;5000456;28;20375;-84
2022/04/04 12:44:05;;;;;;;6.18;4.18;;;8.80;76.30;;;;;;5015332;28;20029;-84
2022/04/04 12:46:32;;;;;;;7.35;4.80;;;8.80;76.10;;;;;;4990017;28;20091;-84
2022/04/04 12:49:12;;;;;;;17.08;7.88;;;8.80;76.30;;;;;;5015156;28;20064;-83
2022/04/04 12:51:38;;;;;;;8.90;5.13;;;8.70;76.30;;;;;;5001737;28;20129;-83
2022/04/04 12:54:04;;;;;;;10.10;4.93;;;8.70;76.30;;;;;;5000533;28;20645;-83
2022/04/04 12:56:45;;;;;;;6.70;4.35;;;8.70;76.50;;;;;;4958355;28;20034;-81
2022/04/04 12:59:11;;;;;;;6.88;4.50;;;8.70;76.80;;;;;;5010164;28;20401;-84
2022/04/04 13:01:38;;;;;;;6.82;4.43;;;8.70;77.20;;;;;;4965652;28;20327;-83
2022/04/04 13:04:24;;;;;;;8.25;5.28;;;8.70;77.20;;;;;;4993015;28;20072;-83
2022/04/04 13:06:49;;;;;;;5.30;3.70;;;8.70;78.20;;;;;;4997192;28;20088;-83
2022/04/04 13:09:26;;;;;;;5.78;3.65;;;8.70;77.40;;;;;;4988609;28;20537;-82
2022/04/04 13:11:54;;;;;;;6.78;4.10;;;8.60;77.80;;;;;;5002054;28;20100;-82